Time;durP1;ratioP1;P1;durP2;ratioP2;P2;SDS_P1;SDS_P2;PMS_P1;PMS_P2;Temp;Humidity;BMP_temperature;BMP_pressure;BME280_temperature;BME280_humidity;BME280_pressure;Samples;Min_cycle;Max_cycle;Signal;HPM_P1;HPM_P2
2021/09/25 00:00:11;;;;;;;3.78;2.63;;;;;;;16.90;92.96;99405.72;4975165;28;20030;-64
2021/09/25 00:02:37;;;;;;;4.30;2.90;;;;;;;16.92;93.11;99403.53;4977803;28;20112;-64
2021/09/25 00:05:04;;;;;;;3.08;2.75;;;;;;;16.88;93.44;99406.03;4994960;28;20070;-64
2021/09/25 00:07:29;;;;;;;3.80;2.88;;;;;;;16.86;93.52;99404.69;4990771;28;20035;-64
2021/09/25 00:09:55;;;;;;;4.45;3.40;;;;;;;16.86;93.80;99400.09;4992725;28;20046;-64
2021/09/25 00:12:21;;;;;;;4.55;3.40;;;;;;;16.85;93.77;99403.09;4992009;28;20038;-64
2021/09/25 00:14:46;;;;;;;7.43;4.05;;;;;;;16.86;93.71;99405.53;4990155;28;20042;-64
2021/09/25 00:17:12;;;;;;;5.38;3.70;;;;;;;16.88;93.59;99416.09;4992448;28;20062;-64
2021/09/25 00:19:39;;;;;;;6.20;4.35;;;;;;;16.82;94.40;99415.38;4990284;28;20516;-65
2021/09/25 00:22:05;;;;;;;5.63;4.28;;;;;;;16.80;94.60;99412.94;4974920;28;20061;-64
2021/09/25 00:24:31;;;;;;;6.78;4.45;;;;;;;16.79;94.96;99416.75;4985243;28;20030;-64
2021/09/25 00:26:56;;;;;;;6.72;4.45;;;;;;;16.90;94.34;99417.44;4979059;28;20053;-65
2021/09/25 00:29:22;;;;;;;6.30;4.78;;;;;;;16.89;94.57;99421.25;4985979;28;20042;-65
2021/09/25 00:31:48;;;;;;;4.95;4.18;;;;;;;16.87;94.82;99414.47;4986987;28;20113;-64
2021/09/25 00:34:14;;;;;;;7.43;4.50;;;;;;;16.81;94.82;99414.53;4989443;28;20074;-64
2021/09/25 00:36:40;;;;;;;7.97;4.50;;;;;;;16.82;94.91;99413.44;4992230;28;20065;-64
2021/09/25 00:39:05;;;;;;;7.47;5.05;;;;;;;16.82;94.98;99416.16;4991379;28;20440;-64
2021/09/25 00:41:31;;;;;;;7.07;4.93;;;;;;;16.84;95.29;99413.16;4993765;28;20531;-64
2021/09/25 00:43:57;;;;;;;8.57;4.85;;;;;;;16.81;94.96;99411.81;4990069;28;20080;-64
2021/09/25 00:46:23;;;;;;;8.23;4.90;;;;;;;16.75;95.39;99423.06;4991942;28;20035;-64
2021/09/25 00:48:50;;;;;;;5.93;5.30;;;;;;;16.79;95.22;99416.75;4988149;28;20042;-64
2021/09/25 00:51:16;;;;;;;7.47;5.18;;;;;;;16.77;95.30;99423.56;4988263;28;20035;-64
2021/09/25 00:53:42;;;;;;;11.55;4.97;;;;;;;16.75;95.18;99414.88;4991049;28;20042;-64
2021/09/25 00:56:10;;;;;;;6.07;4.50;;;;;;;16.72;95.43;99418.19;4979735;28;20469;-64
2021/09/25 00:58:38;;;;;;;5.03;3.90;;;;;;;16.77;94.84;99416.22;4990162;28;20038;-64
2021/09/25 01:01:05;;;;;;;4.78;3.55;;;;;;;16.79;94.73;99410.50;4984051;28;20043;-64
2021/09/25 01:03:31;;;;;;;5.05;3.35;;;;;;;16.74;94.86;99411.38;4971489;28;20121;-64
2021/09/25 01:05:57;;;;;;;6.15;3.72;;;;;;;16.75;94.93;99413.00;4987837;28;20473;-64
2021/09/25 01:08:23;;;;;;;7.95;3.58;;;;;;;16.77;94.90;99412.69;4974196;28;20044;-65
2021/09/25 01:10:51;;;;;;;6.28;4.22;;;;;;;16.82;94.38;99405.28;4989007;28;20101;-64
2021/09/25 01:13:17;;;;;;;6.80;4.80;;;;;;;16.79;94.36;99402.34;4992210;28;20038;-64
2021/09/25 01:15:44;;;;;;;8.43;4.50;;;;;;;16.77;94.47;99404.53;4989644;28;20142;-64
2021/09/25 01:18:10;;;;;;;7.45;5.13;;;;;;;16.73;94.45;99406.22;4979671;28;20535;-64
2021/09/25 01:20:35;;;;;;;7.60;5.00;;;;;;;16.73;94.49;99412.47;4991132;28;20458;-64
2021/09/25 01:23:01;;;;;;;8.10;5.40;;;;;;;16.72;94.21;99405.41;4988807;28;20034;-64
2021/09/25 01:25:26;;;;;;;8.68;4.32;;;;;;;16.66;94.70;99410.09;4991951;28;20034;-64
2021/09/25 01:27:52;;;;;;;6.35;4.18;;;;;;;16.66;94.49;99409.31;4991215;28;20041;-64
2021/09/25 01:30:18;;;;;;;7.40;3.80;;;;;;;16.64;94.67;99406.06;4988532;28;20125;-64
2021/09/25 01:32:45;;;;;;;5.65;3.45;;;;;;;16.68;94.25;99405.19;4990928;28;20042;-64
2021/09/25 01:35:12;;;;;;;7.63;3.00;;;;;;;16.67;94.32;99406.28;4991231;28;20037;-64
2021/09/25 01:37:37;;;;;;;7.93;3.00;;;;;;;16.68;93.98;99410.63;4989518;28;20153;-64
2021/09/25 01:40:05;;;;;;;4.65;2.60;;;;;;;16.69;94.08;99409.53;4991282;28;20502;-64
2021/09/25 01:42:31;;;;;;;6.70;2.80;;;;;;;16.66;94.41;99401.94;4970902;28;20045;-64
2021/09/25 01:44:56;;;;;;;9.43;3.10;;;;;;;16.81;93.54;99402.88;4992377;28;20038;-64
2021/09/25 01:47:22;;;;;;;5.32;2.70;;;;;;;16.79;94.15;99405.06;4977708;28;20042;-64
2021/09/25 01:49:48;;;;;;;7.13;2.83;;;;;;;16.70;94.33;99418.50;4989822;28;20357;-64
2021/09/25 01:52:14;;;;;;;4.45;2.50;;;;;;;16.63;94.47;99418.84;4990088;28;20476;-64
2021/09/25 01:54:41;;;;;;;6.07;3.53;;;;;;;16.60;94.82;99413.19;4990773;28;20074;-64
2021/09/25 01:57:07;;;;;;;4.75;2.95;;;;;;;16.61;95.07;99396.56;4989950;28;20050;-64
2021/09/25 01:59:33;;;;;;;4.57;2.45;;;;;;;16.57;94.84;99403.69;4985221;28;20515;-64
2021/09/25 02:01:59;;;;;;;9.18;2.97;;;;;;;16.50;95.32;99401.34;4987462;28;20065;-65
2021/09/25 02:04:24;;;;;;;6.10;2.65;;;;;;;16.58;95.21;99401.81;4991895;28;20061;-64
2021/09/25 02:06:50;;;;;;;9.77;2.65;;;;;;;16.50;94.84;99400.53;4989498;28;20048;-64
2021/09/25 02:09:16;;;;;;;6.32;2.50;;;;;;;16.45;95.17;99406.84;4988704;28;20097;-64
2021/09/25 02:11:41;;;;;;;6.45;2.40;;;;;;;16.42;95.24;99407.41;4972910;28;20042;-64
2021/09/25 02:14:06;;;;;;;4.68;1.90;;;;;;;16.41;95.33;99410.41;4990288;28;20046;-65
2021/09/25 02:16:32;;;;;;;5.20;2.33;;;;;;;16.43;95.03;99408.22;4987538;28;20085;-64
2021/09/25 02:18:57;;;;;;;4.25;2.35;;;;;;;16.45;95.33;99409.56;4990961;28;20035;-64
2021/09/25 02:21:23;;;;;;;9.55;2.97;;;;;;;16.41;95.20;99402.25;4989268;28;20046;-64
2021/09/25 02:23:48;;;;;;;7.10;3.55;;;;;;;16.39;95.59;99408.00;4989334;28;20030;-65
2021/09/25 02:26:14;;;;;;;8.48;4.20;;;;;;;16.36;95.75;99401.22;4981745;28;20039;-65
2021/09/25 02:28:40;;;;;;;11.07;3.85;;;;;;;16.34;95.71;99394.47;4985097;28;20550;-65
2021/09/25 02:31:06;;;;;;;6.47;3.15;;;;;;;16.29;95.86;99400.75;4990172;28;20472;-64
2021/09/25 02:33:32;;;;;;;6.45;3.00;;;;;;;16.22;96.12;99392.97;4988801;28;20089;-64
2021/09/25 02:35:57;;;;;;;8.88;3.78;;;;;;;16.15;96.05;99399.84;4987885;28;20035;-64
2021/09/25 02:38:24;;;;;;;8.15;3.47;;;;;;;16.07;96.67;99399.38;4989987;28;20038;-64
2021/09/25 02:40:50;;;;;;;4.70;3.20;;;;;;;15.95;96.76;99401.66;4988480;28;20448;-64
2021/09/25 02:43:15;;;;;;;4.53;3.20;;;;;;;15.85;97.52;99402.53;4979315;28;20038;-64
2021/09/25 02:45:41;;;;;;;5.43;3.20;;;;;;;15.78;97.79;99391.19;4990001;28;20121;-64
2021/09/25 02:48:06;;;;;;;4.32;2.85;;;;;;;15.75;98.13;99391.75;4991145;28;20133;-64
2021/09/25 02:50:32;;;;;;;3.95;3.17;;;;;;;15.71;98.52;99386.09;4989675;28;20125;-64
2021/09/25 02:52:58;;;;;;;7.22;3.17;;;;;;;15.73;98.80;99385.81;4989724;28;20056;-64
2021/09/25 02:55:25;;;;;;;6.82;3.38;;;;;;;15.70;98.81;99395.34;4988059;28;20038;-65
2021/09/25 02:57:50;;;;;;;10.77;3.95;;;;;;;15.74;99.10;99392.84;4977543;28;20039;-64
2021/09/25 03:00:20;;;;;;;5.28;3.70;;;;;;;15.75;99.64;99402.63;4983231;28;20145;-64
2021/09/25 03:02:46;;;;;;;7.72;3.95;;;;;;;15.76;99.71;99398.81;4991801;28;20026;-64
2021/09/25 03:05:12;;;;;;;9.18;3.40;;;;;;;15.78;99.50;99399.34;4982980;28;20030;-64
2021/09/25 03:07:38;;;;;;;3.95;3.30;;;;;;;15.79;99.28;99401.78;4982448;28;20074;-64
2021/09/25 03:10:07;;;;;;;5.28;3.15;;;;;;;15.80;99.07;99402.56;4988022;28;20407;-64
2021/09/25 03:12:34;;;;;;;4.45;3.22;;;;;;;15.83;99.25;99406.63;4984843;28;20041;-64
2021/09/25 03:15:00;;;;;;;4.97;3.25;;;;;;;15.84;99.25;99390.03;4986863;28;20089;-63
2021/09/25 03:17:25;;;;;;;6.40;3.45;;;;;;;15.87;99.00;99394.94;4985438;28;20436;-63
2021/09/25 03:19:50;;;;;;;5.88;3.60;;;;;;;15.87;99.43;99392.22;4974287;28;20027;-63
2021/09/25 03:22:16;;;;;;;4.97;3.17;;;;;;;15.93;99.30;99390.28;4988710;28;20385;-63
2021/09/25 03:24:44;;;;;;;5.55;3.40;;;;;;;15.92;98.87;99394.91;4972329;28;20068;-64
2021/09/25 03:27:09;;;;;;;4.97;3.10;;;;;;;15.91;98.86;99384.31;4990852;28;20094;-63
2021/09/25 03:29:34;;;;;;;5.20;3.47;;;;;;;15.92;98.91;99396.81;4985396;28;20105;-63
2021/09/25 03:32:00;;;;;;;5.38;3.45;;;;;;;15.94;98.89;99395.44;4989217;28;20041;-65
2021/09/25 03:34:25;;;;;;;3.97;3.03;;;;;;;15.95;98.65;99396.22;4993790;28;20054;-64
2021/09/25 03:36:51;;;;;;;5.85;3.25;;;;;;;16.08;98.67;99390.13;4975356;28;20492;-64
2021/09/25 03:39:16;;;;;;;5.30;2.70;;;;;;;16.03;98.35;99394.81;4985948;28;20039;-63
2021/09/25 03:41:43;;;;;;;6.95;3.00;;;;;;;15.99;98.34;99391.84;4979718;28;20422;-64
2021/09/25 03:44:09;;;;;;;12.45;3.30;;;;;;;15.97;98.99;99394.03;4989736;28;20503;-64
2021/09/25 03:46:35;;;;;;;6.88;3.10;;;;;;;15.97;99.10;99396.75;4976724;28;20038;-64
2021/09/25 03:49:01;;;;;;;4.80;2.95;;;;;;;15.96;99.07;99397.84;4984778;28;20085;-64
2021/09/25 03:51:26;;;;;;;5.75;3.10;;;;;;;15.94;99.14;99405.47;4982451;28;20468;-64
2021/09/25 03:53:52;;;;;;;9.05;3.85;;;;;;;15.97;99.09;99390.53;4989137;28;20042;-65
2021/09/25 03:56:18;;;;;;;4.68;3.00;;;;;;;15.95;98.77;99391.63;4977599;28;20042;-64
2021/09/25 03:58:44;;;;;;;4.43;3.30;;;;;;;15.94;98.80;99394.63;4992643;28;20046;-64
2021/09/25 04:01:11;;;;;;;4.70;2.97;;;;;;;15.92;98.62;99394.91;4961390;28;20038;-64
2021/09/25 04:03:37;;;;;;;4.25;3.05;;;;;;;15.92;98.67;99391.38;4993372;28;20030;-64
2021/09/25 04:06:03;;;;;;;4.30;2.80;;;;;;;15.92;98.61;99389.47;4992594;28;20039;-64
2021/09/25 04:08:29;;;;;;;3.85;3.08;;;;;;;15.92;98.83;99396.81;4990950;28;20162;-64
2021/09/25 04:10:55;;;;;;;4.55;2.85;;;;;;;15.92;98.70;99397.63;4992223;28;20516;-64
2021/09/25 04:13:23;;;;;;;4.13;2.97;;;;;;;15.92;98.64;99402.25;4992444;28;20057;-64
2021/09/25 04:15:48;;;;;;;4.50;2.83;;;;;;;15.91;98.78;99400.63;4989427;28;20440;-64
2021/09/25 04:18:14;;;;;;;6.25;3.70;;;;;;;15.97;98.79;99398.69;4983819;28;20092;-64
2021/09/25 04:20:40;;;;;;;6.95;3.42;;;;;;;16.08;98.73;99390.13;4990018;28;20031;-64
2021/09/25 04:23:10;;;;;;;5.28;3.20;;;;;;;16.03;98.68;99397.53;4979889;28;20383;-64
2021/09/25 04:25:36;;;;;;;3.83;2.92;;;;;;;16.00;98.62;99398.91;4992321;28;20035;-64
2021/09/25 04:28:09;;;;;;;4.57;3.30;;;;;;;15.98;98.88;99401.09;4972716;28;20045;-64
2021/09/25 04:30:36;;;;;;;6.65;4.00;;;;;;;15.94;98.98;99391.91;4992137;28;20499;-64
2021/09/25 04:33:02;;;;;;;7.32;4.35;;;;;;;15.92;99.54;99394.91;4989760;28;20038;-64
2021/09/25 04:35:29;;;;;;;8.63;3.45;;;;;;;15.93;99.28;99396.53;4993956;28;20530;-64
2021/09/25 04:37:56;;;;;;;6.45;3.95;;;;;;;15.93;99.51;99393.00;4971486;28;20121;-64
2021/09/25 04:40:22;;;;;;;7.07;3.72;;;;;;;15.95;99.25;99391.63;4978229;28;20190;-64
2021/09/25 04:42:47;;;;;;;7.60;4.00;;;;;;;15.94;99.39;99391.91;4992570;28;20092;-64
2021/09/25 04:45:13;;;;;;;10.80;4.20;;;;;;;15.98;98.98;99392.16;4988909;28;20046;-65
2021/09/25 04:47:40;;;;;;;5.38;3.92;;;;;;;15.97;99.28;99388.59;4991837;28;20088;-64
2021/09/25 04:50:07;;;;;;;7.38;4.70;;;;;;;15.97;99.33;99385.09;4989032;28;20036;-64
2021/09/25 04:52:32;;;;;;;8.55;5.07;;;;;;;15.95;99.83;99380.75;4991600;28;20122;-64
2021/09/25 04:54:57;;;;;;;6.45;4.63;;;;;;;15.95;99.92;99382.66;4992353;28;20554;-64
2021/09/25 04:57:24;;;;;;;6.57;4.75;;;;;;;15.93;99.75;99385.66;4988045;28;20054;-64
2021/09/25 04:59:50;;;;;;;5.78;4.47;;;;;;;15.93;99.71;99377.53;4972417;28;20125;-65
2021/09/25 05:02:15;;;;;;;8.68;5.30;;;;;;;15.94;99.70;99381.03;4993752;28;20558;-64
2021/09/25 05:04:41;;;;;;;8.65;5.05;;;;;;;15.94;99.75;99391.91;4988594;28;20065;-64
2021/09/25 05:07:08;;;;;;;8.50;4.90;;;;;;;15.93;99.86;99384.84;4996506;28;20030;-64
2021/09/25 05:09:33;;;;;;;10.20;5.65;;;;;;;15.92;99.85;99392.19;4998705;28;20048;-64
2021/09/25 05:11:59;;;;;;;7.72;5.50;;;;;;;15.98;100.00;99389.44;4983906;28;20400;-64
2021/09/25 05:14:25;;;;;;;8.30;5.90;;;;;;;15.93;99.93;99388.38;4990956;28;20046;-64
2021/09/25 05:16:51;;;;;;;8.60;4.95;;;;;;;15.92;99.89;99384.06;4991632;28;20038;-64
2021/09/25 05:19:16;;;;;;;9.18;5.28;;;;;;;15.91;100.00;99385.16;4991787;28;20029;-64
2021/09/25 05:21:42;;;;;;;7.45;5.68;;;;;;;15.90;100.00;99391.69;4988369;28;20038;-64
2021/09/25 05:24:08;;;;;;;8.52;5.40;;;;;;;15.90;100.00;99393.56;4991600;28;20026;-64
2021/09/25 05:26:35;;;;;;;11.00;6.35;;;;;;;15.90;100.00;99399.00;4991390;28;20121;-64
2021/09/25 05:29:02;;;;;;;9.88;6.82;;;;;;;15.92;100.00;99391.38;4988369;28;20488;-64
2021/09/25 05:31:30;;;;;;;13.30;7.15;;;;;;;15.88;100.00;99391.13;4991292;28;20041;-63
2021/09/25 05:33:57;;;;;;;11.75;7.68;;;;;;;15.88;100.00;99395.75;4989118;28;20463;-63
2021/09/25 05:36:22;;;;;;;12.25;7.18;;;;;;;15.85;100.00;99397.09;4991260;28;20046;-64
2021/09/25 05:38:48;;;;;;;10.80;7.50;;;;;;;15.87;100.00;99402.25;4989983;28;20038;-64
2021/09/25 05:41:14;;;;;;;12.10;7.80;;;;;;;15.85;100.00;99407.16;4987171;28;20030;-64
2021/09/25 05:43:39;;;;;;;14.55;7.70;;;;;;;15.80;100.00;99408.84;4990522;28;20034;-64
2021/09/25 05:46:05;;;;;;;12.32;7.57;;;;;;;15.78;100.00;99408.31;4990075;28;20475;-64
2021/09/25 05:48:32;;;;;;;11.52;7.95;;;;;;;15.80;100.00;99408.00;4987934;28;20053;-64
2021/09/25 05:50:58;;;;;;;13.73;8.48;;;;;;;15.83;100.00;99410.16;4972657;28;20483;-64
2021/09/25 05:53:24;;;;;;;10.73;8.57;;;;;;;15.83;100.00;99412.06;4989266;28;20050;-64
2021/09/25 05:55:49;;;;;;;15.57;8.50;;;;;;;15.81;100.00;99418.59;4980089;28;20046;-64
2021/09/25 05:58:14;;;;;;;14.95;8.10;;;;;;;15.80;100.00;99413.44;4985441;28;20031;-64
2021/09/25 06:00:40;;;;;;;13.60;7.93;;;;;;;15.79;100.00;99414.53;4989855;28;20463;-64
2021/09/25 06:03:06;;;;;;;16.95;7.60;;;;;;;15.77;100.00;99420.25;4988113;28;20043;-64
2021/09/25 06:05:31;;;;;;;12.68;7.15;;;;;;;15.76;100.00;99415.09;4984764;28;20039;-64
2021/09/25 06:07:57;;;;;;;15.10;7.72;;;;;;;15.76;100.00;99418.66;4989161;28;20714;-64
2021/09/25 06:10:23;;;;;;;9.35;6.55;;;;;;;15.76;100.00;99410.50;4986854;28;20038;-64
2021/09/25 06:12:48;;;;;;;10.50;6.38;;;;;;;15.78;100.00;99411.03;4992861;28;20030;-63
2021/09/25 06:15:14;;;;;;;9.10;6.38;;;;;;;15.81;100.00;99407.75;4990241;28;20119;-64
2021/09/25 06:17:41;;;;;;;11.75;6.47;;;;;;;15.91;100.00;99406.88;4982400;28;20042;-64
2021/09/25 06:20:08;;;;;;;12.32;6.57;;;;;;;15.98;100.00;99411.16;4988425;28;20038;-64
2021/09/25 06:22:34;;;;;;;7.10;5.40;;;;;;;15.97;100.00;99410.34;4985376;28;20042;-64
2021/09/25 06:24:59;;;;;;;8.43;5.90;;;;;;;15.99;100.00;99418.22;4978873;28;20049;-64
2021/09/25 06:27:25;;;;;;;9.48;5.80;;;;;;;16.07;100.00;99410.22;4978735;28;20046;-64
2021/09/25 06:29:51;;;;;;;9.48;6.32;;;;;;;16.08;100.00;99402.91;4988791;28;20075;-64
2021/09/25 06:32:16;;;;;;;12.25;6.72;;;;;;;16.04;100.00;99402.66;4988108;28;20648;-64
2021/09/25 06:34:42;;;;;;;9.65;6.60;;;;;;;16.03;100.00;99413.81;4986421;28;20169;-64
2021/09/25 06:37:08;;;;;;;14.60;6.30;;;;;;;16.05;100.00;99414.34;4981829;28;20034;-65
2021/09/25 06:39:34;;;;;;;14.75;6.88;;;;;;;16.08;100.00;99411.06;4986746;28;20030;-64
2021/09/25 06:42:00;;;;;;;8.80;6.47;;;;;;;16.14;100.00;99409.09;4982618;28;20126;-64
2021/09/25 06:44:26;;;;;;;10.68;6.28;;;;;;;16.19;100.00;99407.13;4985720;28;20113;-65
2021/09/25 06:46:52;;;;;;;9.05;6.28;;;;;;;16.23;99.24;99405.47;4981993;28;20026;-64
2021/09/25 06:49:18;;;;;;;10.02;7.00;;;;;;;16.26;99.08;99401.34;4981683;28;20039;-64
2021/09/25 06:51:44;;;;;;;12.75;6.93;;;;;;;16.32;98.91;99413.78;4982899;28;20045;-64
2021/09/25 06:54:10;;;;;;;12.40;7.13;;;;;;;16.36;98.46;99411.28;4985659;28;20073;-64
2021/09/25 06:56:35;;;;;;;9.35;7.30;;;;;;;16.41;98.58;99407.69;4986907;28;20495;-64
2021/09/25 06:59:01;;;;;;;11.05;7.68;;;;;;;16.46;98.20;99408.47;4986293;28;20543;-64
2021/09/25 07:01:27;;;;;;;11.95;7.82;;;;;;;16.50;98.02;99414.13;4981894;28;20041;-64
2021/09/25 07:03:52;;;;;;;12.48;7.70;;;;;;;16.52;97.75;99420.06;4985765;28;20778;-65
2021/09/25 07:06:18;;;;;;;15.88;8.00;;;;;;;16.56;97.99;99421.09;4986946;28;20042;-65
2021/09/25 07:08:43;;;;;;;8.98;6.95;;;;;;;16.67;97.41;99421.81;4989787;28;20753;-65
2021/09/25 07:11:08;;;;;;;11.23;7.15;;;;;;;16.68;97.18;99423.41;4975205;28;20480;-65
2021/09/25 07:13:34;;;;;;;13.77;7.10;;;;;;;16.78;97.06;99423.28;4989326;28;20046;-65
2021/09/25 07:15:59;;;;;;;10.73;7.10;;;;;;;16.78;96.67;99417.03;4990469;28;20041;-66
2021/09/25 07:18:25;;;;;;;11.07;8.10;;;;;;;16.87;96.47;99409.88;4642950;28;9999736;-65
2021/09/25 07:20:51;;;;;;;12.77;8.50;;;;;;;16.98;95.99;99418.69;4986855;28;20034;-66
2021/09/25 07:23:17;;;;;;;20.38;11.88;;;;;;;17.01;95.50;99415.41;4972473;28;20099;-66
2021/09/25 07:25:43;;;;;;;21.48;11.63;;;;;;;17.20;94.69;99418.13;4985157;28;20042;-66
2021/09/25 07:28:09;;;;;;;15.13;9.98;;;;;;;17.16;94.16;99419.81;4988640;28;21316;-66
2021/09/25 07:30:37;;;;;;;11.70;8.82;;;;;;;17.14;94.65;99423.94;4985950;28;20414;-63
2021/09/25 07:33:06;;;;;;;11.60;8.68;;;;;;;17.16;94.54;99425.28;4985139;28;20069;-65
2021/09/25 07:35:34;;;;;;;11.10;7.80;;;;;;;17.20;93.98;99428.19;4983558;28;20039;-64
2021/09/25 07:38:04;;;;;;;12.13;7.35;;;;;;;17.25;94.17;99428.94;4983944;28;20049;-64
2021/09/25 07:40:32;;;;;;;8.10;6.03;;;;;;;17.22;93.84;99421.38;4962795;28;20057;-64
2021/09/25 07:42:58;;;;;;;7.90;6.30;;;;;;;17.26;93.69;99430.56;4970956;28;20487;-64
2021/09/25 07:45:23;;;;;;;8.38;6.13;;;;;;;17.25;92.96;99431.66;4986765;28;20042;-65
2021/09/25 07:47:49;;;;;;;13.00;6.40;;;;;;;17.26;92.84;99436.00;4967638;28;20046;-65
2021/09/25 07:50:15;;;;;;;6.25;5.65;;;;;;;17.38;92.86;99435.53;4979854;28;20039;-66
2021/09/25 07:52:42;;;;;;;6.80;5.28;;;;;;;17.35;92.38;99435.34;4983199;28;20041;-64
2021/09/25 07:55:09;;;;;;;6.90;5.72;;;;;;;17.35;92.63;99438.84;4974418;28;20046;-64
2021/09/25 07:57:36;;;;;;;9.77;5.50;;;;;;;17.31;93.01;99440.53;4969562;28;20161;-64
2021/09/25 08:00:04;;;;;;;9.38;5.70;;;;;;;17.35;93.26;99443.50;4980614;28;20035;-64
2021/09/25 08:02:30;;;;;;;7.25;5.50;;;;;;;17.41;92.95;99440.38;4980891;28;20129;-64
2021/09/25 08:04:56;;;;;;;8.45;5.80;;;;;;;17.43;92.54;99437.38;4989554;28;20105;-63
2021/09/25 08:07:21;;;;;;;8.65;5.55;;;;;;;17.52;92.45;99434.78;4988361;28;20041;-64
2021/09/25 08:09:47;;;;;;;10.02;5.60;;;;;;;17.66;92.08;99438.38;4991655;28;20089;-64
2021/09/25 08:12:13;;;;;;;5.60;4.75;;;;;;;17.74;91.62;99444.28;4987450;28;20616;-64
2021/09/25 08:14:39;;;;;;;7.97;5.00;;;;;;;17.75;91.45;99438.50;4970809;28;20030;-64
2021/09/25 08:17:07;;;;;;;6.97;4.90;;;;;;;17.85;90.21;99445.72;4985918;28;20117;-63
2021/09/25 08:19:33;;;;;;;5.63;4.85;;;;;;;17.92;89.78;99442.59;4989385;28;20045;-64
2021/09/25 08:22:00;;;;;;;12.20;5.07;;;;;;;17.95;90.41;99444.72;4992651;28;20026;-63
2021/09/25 08:24:25;;;;;;;9.45;6.05;;;;;;;18.17;89.14;99449.53;4990836;28;20962;-64
2021/09/25 08:26:51;;;;;;;8.70;5.95;;;;;;;18.16;89.19;99449.81;4992166;28;20491;-63
2021/09/25 08:29:16;;;;;;;11.48;6.00;;;;;;;18.23;89.17;99452.97;4991360;28;20034;-63
2021/09/25 08:31:42;;;;;;;8.40;5.60;;;;;;;18.39;88.12;99451.56;4986768;28;20057;-63
2021/09/25 08:34:07;;;;;;;11.55;4.90;;;;;;;18.37;87.82;99451.06;4978596;28;20381;-63
2021/09/25 08:36:33;;;;;;;5.38;4.32;;;;;;;18.45;87.56;99457.75;4972195;28;20395;-63
2021/09/25 08:38:59;;;;;;;8.15;5.72;;;;;;;18.37;88.25;99458.44;4983812;28;20038;-63
2021/09/25 08:41:25;;;;;;;8.38;5.70;;;;;;;18.42;87.20;99456.41;4986643;28;20558;-64
2021/09/25 08:43:51;;;;;;;7.78;5.13;;;;;;;18.46;87.32;99458.53;4987853;28;20058;-63
2021/09/25 08:46:17;;;;;;;7.93;6.18;;;;;;;18.51;87.57;99453.81;4992582;28;20042;-63
2021/09/25 08:48:42;;;;;;;10.25;6.65;;;;;;;18.48;88.42;99453.59;4977045;28;20041;-63
2021/09/25 08:51:09;;;;;;;6.05;5.18;;;;;;;18.68;86.98;99449.66;4979645;28;20034;-63
2021/09/25 08:53:35;;;;;;;8.90;5.80;;;;;;;18.80;85.74;99449.16;4990753;28;20050;-63
2021/09/25 08:56:01;;;;;;;7.97;5.75;;;;;;;19.02;85.30;99453.88;4984808;28;20061;-63
2021/09/25 08:58:26;;;;;;;7.32;5.13;;;;;;;19.10;84.73;99450.44;4984830;28;20050;-63
2021/09/25 09:00:53;;;;;;;6.88;5.03;;;;;;;19.22;83.13;99449.09;4984787;28;20042;-64
2021/09/25 09:03:41;;;;;;;5.00;4.50;;;;;;;19.33;81.83;99447.72;4986670;28;20081;-64
2021/09/25 09:06:11;;;;;;;5.20;4.70;;;;;;;19.39;80.81;99438.31;4984600;28;20496;-64
2021/09/25 09:08:38;;;;;;;6.93;5.28;;;;;;;19.39;81.32;99451.16;4981221;28;20105;-63
2021/09/25 09:11:07;;;;;;;7.40;5.85;;;;;;;19.19;82.25;99449.69;4990108;28;20046;-63
2021/09/25 09:13:37;;;;;;;7.53;5.72;;;;;;;19.27;83.40;99441.59;4991132;28;20037;-64
2021/09/25 09:16:06;;;;;;;6.25;5.65;;;;;;;19.30;81.40;99445.63;4979787;28;20050;-64
2021/09/25 09:18:35;;;;;;;6.40;5.80;;;;;;;19.27;81.57;99449.78;4982442;28;20034;-64
2021/09/25 09:21:30;;;;;;;9.35;7.53;;;;;;;18.95;84.26;99450.72;4975802;28;20053;-63
2021/09/25 09:24:16;;;;;;;10.98;8.25;;;;;;;18.80;84.85;99451.88;4988508;28;20053;-63
2021/09/25 09:27:11;;;;;;;10.20;8.55;;;;;;;18.69;86.05;99443.09;4985396;28;20076;-63
2021/09/25 09:30:08;;;;;;;10.32;9.27;;;;;;;18.66;86.28;99449.16;4988538;28;20073;-64
2021/09/25 09:32:52;;;;;;;12.80;9.80;;;;;;;18.71;85.79;99449.88;4990625;28;20045;-64
2021/09/25 09:35:36;;;;;;;11.35;10.25;;;;;;;18.74;86.44;99442.97;4980656;28;20050;-63
2021/09/25 09:38:23;;;;;;;12.43;10.02;;;;;;;18.84;86.16;99455.63;4983033;28;20589;-63
2021/09/25 09:41:09;;;;;;;10.38;9.20;;;;;;;18.99;85.38;99449.03;4986636;28;20045;-63
2021/09/25 09:43:57;;;;;;;8.50;6.97;;;;;;;19.11;83.51;99456.72;4986593;28;20081;-63
2021/09/25 09:46:44;;;;;;;7.90;6.82;;;;;;;19.11;83.70;99456.72;4987985;28;20448;-64
2021/09/25 09:49:31;;;;;;;4.65;4.25;;;;;;;19.10;82.09;99450.44;4983949;28;20093;-64
2021/09/25 09:52:15;;;;;;;5.70;4.60;;;;;;;19.26;81.75;99452.81;4987271;28;20400;-64
2021/09/25 09:54:43;;;;;;;7.60;4.82;;;;;;;19.23;81.24;99451.53;4989270;28;20038;-64
2021/09/25 09:57:18;;;;;;;6.38;5.25;;;;;;;19.08;82.53;99452.66;4987277;28;20058;-63
2021/09/25 09:59:45;;;;;;;5.20;4.70;;;;;;;19.17;81.96;99450.03;4983591;28;20868;-63
2021/09/25 10:02:11;;;;;;;7.10;6.25;;;;;;;19.09;82.79;99443.34;4966510;28;20041;-64
2021/09/25 10:04:39;;;;;;;13.57;9.50;;;;;;;19.05;83.89;99442.34;4985400;28;20039;-65
2021/09/25 10:07:06;;;;;;;11.65;8.20;;;;;;;18.90;85.44;99443.47;4983704;28;20037;-66
2021/09/25 10:09:34;;;;;;;8.73;6.97;;;;;;;18.91;84.92;99447.81;4983320;28;20125;-66
2021/09/25 10:12:16;;;;;;;7.07;6.35;;;;;;;19.04;84.62;99448.13;4984025;28;20030;-65
2021/09/25 10:14:48;;;;;;;5.63;4.70;;;;;;;19.05;84.78;99447.03;4967266;28;20053;-65
2021/09/25 10:17:16;;;;;;;4.13;3.72;;;;;;;19.28;84.31;99443.22;4986384;28;20046;-65
2021/09/25 10:19:43;;;;;;;4.93;3.58;;;;;;;19.37;83.78;99439.75;4984664;28;20034;-65
2021/09/25 10:22:13;;;;;;;9.88;5.53;;;;;;;19.41;83.67;99447.00;4986126;28;20048;-65
2021/09/25 10:24:45;;;;;;;6.50;4.60;;;;;;;19.06;85.07;99452.16;4967085;28;20030;-65
2021/09/25 10:27:11;;;;;;;6.82;3.85;;;;;;;19.16;85.22;99454.66;4986264;28;20038;-66
2021/09/25 10:29:48;;;;;;;4.95;3.30;;;;;;;19.10;85.42;99455.88;4981964;28;20141;-67
2021/09/25 10:32:25;;;;;;;5.85;3.38;;;;;;;19.06;86.00;99454.88;4977589;28;20124;-65
2021/09/25 10:35:19;;;;;;;5.18;3.50;;;;;;;19.11;85.65;99441.13;4984507;28;20077;-66
2021/09/25 10:37:46;;;;;;;3.80;3.20;;;;;;;18.94;86.33;99447.22;4981570;28;20556;-66
2021/09/25 10:40:15;;;;;;;5.28;2.53;;;;;;;18.85;86.63;99443.59;4961225;28;20042;-66
2021/09/25 10:42:52;;;;;;;3.22;2.30;;;;;;;18.82;86.79;99439.53;4968598;28;20093;-66
2021/09/25 10:45:32;;;;;;;2.42;2.00;;;;;;;18.97;86.79;99443.06;4982852;28;20212;-66
2021/09/25 10:48:14;;;;;;;1.85;1.60;;;;;;;19.14;85.71;99439.72;4981691;28;20041;-66
2021/09/25 10:50:56;;;;;;;1.65;1.40;;;;;;;19.24;85.12;99439.50;4981884;28;20046;-67
2021/09/25 10:53:34;;;;;;;1.38;1.27;;;;;;;19.37;84.31;99445.22;4983844;28;20043;-66
2021/09/25 10:56:03;;;;;;;2.80;1.63;;;;;;;19.26;84.84;99433.69;4984409;28;20150;-66
2021/09/25 10:58:36;;;;;;;4.30;1.80;;;;;;;19.55;83.68;99430.56;4984292;28;20030;-68
2021/09/25 11:01:18;;;;;;;2.35;1.38;;;;;;;19.67;82.73;99432.75;4964382;28;20909;-65
2021/09/25 11:03:46;;;;;;;1.17;1.08;;;;;;;19.74;82.13;99432.28;4982802;28;20141;-66
2021/09/25 11:06:12;;;;;;;1.98;1.10;;;;;;;19.65;82.59;99431.44;4977383;28;20073;-66
2021/09/25 11:08:50;;;;;;;3.65;1.27;;;;;;;19.62;83.08;99432.06;4943067;28;20048;-68
2021/09/25 11:11:18;;;;;;;4.72;1.67;;;;;;;19.60;83.11;99424.19;4962405;28;20056;-68
2021/09/25 11:14:05;;;;;;;1.80;1.25;;;;;;;19.72;83.04;99418.13;4980828;28;20455;-66
2021/09/25 11:16:49;;;;;;;2.00;1.20;;;;;;;19.88;82.74;99422.09;4981611;28;20050;-67
2021/09/25 11:19:20;;;;;;;2.30;1.48;;;;;;;19.98;81.05;99412.03;4978640;28;20149;-67
2021/09/25 11:21:59;;;;;;;4.85;1.40;;;;;;;20.13;78.98;99417.09;4980488;28;20097;-66
2021/09/25 11:24:26;;;;;;;1.83;1.40;;;;;;;20.34;77.78;99416.56;4977139;28;20042;-67
2021/09/25 11:26:52;;;;;;;1.38;1.02;;;;;;;20.55;77.39;99411.31;4980252;28;20524;-66
2021/09/25 11:29:18;;;;;;;1.50;0.90;;;;;;;20.70;76.15;99414.72;4979538;28;20045;-67
2021/09/25 11:31:48;;;;;;;0.88;0.75;;;;;;;20.99;75.02;99411.44;4984947;28;20026;-66